createdAt,value
2022-11-17T00:00:07.350Z,6.21
2022-11-17T00:00:17.255Z,6.21
2022-11-17T00:00:27.372Z,6.21
2022-11-17T00:00:37.357Z,6.22
2022-11-17T00:00:47.175Z,6.21
2022-11-17T00:00:57.838Z,6.21
2022-11-17T00:01:07.332Z,6.19
2022-11-17T00:01:17.489Z,6.22
2022-11-17T00:01:27.215Z,6.21
2022-11-17T00:01:37.394Z,6.14
2022-11-17T00:01:47.365Z,6.21
2022-11-17T00:01:57.398Z,6.21
2022-11-17T00:02:07.472Z,6.18
2022-11-17T00:02:17.285Z,6.21
2022-11-17T00:02:27.373Z,6.25
2022-11-17T00:02:37.525Z,6.21
2022-11-17T00:02:47.407Z,6.16
2022-11-17T00:02:57.283Z,6.21
2022-11-17T00:03:07.443Z,6.18
2022-11-17T00:03:17.271Z,6.19
2022-11-17T00:03:27.252Z,6.21
2022-11-17T00:03:37.820Z,6.22
2022-11-17T00:03:47.238Z,6.21
2022-11-17T00:03:57.233Z,6.16
2022-11-17T00:04:07.489Z,6.19
2022-11-17T00:04:17.262Z,6.19
2022-11-17T00:04:27.259Z,6.19
2022-11-17T00:04:37.148Z,6.18
2022-11-17T00:04:47.413Z,6.19
2022-11-17T00:04:57.416Z,6.19
2022-11-17T00:05:07.188Z,6.18
2022-11-17T00:05:17.200Z,6.19
2022-11-17T00:05:27.196Z,6.19
2022-11-17T00:05:37.233Z,6.19
2022-11-17T00:05:47.157Z,6.22
2022-11-17T00:05:57.220Z,6.21
2022-11-17T00:06:07.228Z,6.18
2022-11-17T00:06:17.256Z,6.21
2022-11-17T00:06:27.168Z,6.19
2022-11-17T00:06:37.369Z,6.19
2022-11-17T00:06:47.172Z,6.25
2022-11-17T00:06:57.250Z,6.19
2022-11-17T00:07:07.293Z,6.16
2022-11-17T00:07:17.314Z,6.13
2022-11-17T00:07:27.502Z,6.22
2022-11-17T00:07:37.337Z,6.21
2022-11-17T00:07:47.296Z,6.18
2022-11-17T00:07:57.398Z,6.18
2022-11-17T00:08:07.210Z,6.18
2022-11-17T00:08:17.431Z,6.19
2022-11-17T00:08:27.259Z,6.18
2022-11-17T00:08:37.390Z,6.19
2022-11-17T00:08:47.409Z,6.14
2022-11-17T00:08:57.331Z,6.19
2022-11-17T00:09:07.355Z,6.11
2022-11-17T00:09:17.156Z,6.16
2022-11-17T00:09:27.364Z,6.16
2022-11-17T00:09:37.285Z,6.19
2022-11-17T00:09:47.233Z,6.18
2022-11-17T00:09:57.432Z,6.18
2022-11-17T00:10:07.205Z,6.18
2022-11-17T00:10:17.361Z,6.18
2022-11-17T00:10:27.330Z,6.18
2022-11-17T00:10:37.156Z,6.16
2022-11-17T00:10:47.158Z,6.13
2022-11-17T00:10:57.198Z,6.21
2022-11-17T00:11:07.182Z,6.19
2022-11-17T00:11:17.457Z,6.14
2022-11-17T00:11:27.244Z,6.11
2022-11-17T00:11:37.312Z,6.11
2022-11-17T00:11:47.333Z,6.18
2022-11-17T00:11:57.574Z,6.16
2022-11-17T00:12:07.302Z,6.21
2022-11-17T00:12:22.350Z,6.14
2022-11-17T00:12:32.662Z,6.14
2022-11-17T00:12:37.445Z,6.11
2022-11-17T00:12:47.402Z,6.13
2022-11-17T00:12:57.292Z,6.13
2022-11-17T00:13:07.441Z,6.06
2022-11-17T00:13:17.338Z,6.13
2022-11-17T00:13:27.361Z,6.11
2022-11-17T00:13:37.400Z,6.11
2022-11-17T00:13:47.237Z,6.13
2022-11-17T00:13:57.407Z,6.13
2022-11-17T00:14:07.468Z,6.09
2022-11-17T00:14:17.195Z,6.10
2022-11-17T00:14:27.153Z,6.10
2022-11-17T00:14:37.219Z,6.13
2022-11-17T00:14:47.225Z,6.13
2022-11-17T00:14:57.354Z,6.07
2022-11-17T00:15:07.248Z,6.11
2022-11-17T00:15:17.441Z,6.07
2022-11-17T00:15:27.387Z,6.09
2022-11-17T00:15:37.434Z,6.10
2022-11-17T00:15:47.408Z,6.09
2022-11-17T00:15:57.516Z,6.10
2022-11-17T00:16:07.234Z,6.10
2022-11-17T00:16:17.230Z,6.09
2022-11-17T00:16:27.189Z,6.04
2022-11-17T00:16:37.461Z,6.10
2022-11-17T00:16:47.312Z,6.06
2022-11-17T00:16:57.236Z,6.09
2022-11-17T00:17:07.203Z,6.06
2022-11-17T00:17:17.202Z,6.09
2022-11-17T00:17:27.328Z,6.09
2022-11-17T00:17:37.409Z,6.07
2022-11-17T00:17:47.277Z,6.06
2022-11-17T00:17:57.220Z,6.07
2022-11-17T00:18:07.297Z,6.07
2022-11-17T00:18:17.351Z,6.09
2022-11-17T00:18:27.440Z,6.10
2022-11-17T00:18:37.396Z,6.06
2022-11-17T00:18:47.261Z,6.06
2022-11-17T00:18:57.157Z,6.07
2022-11-17T00:19:07.297Z,6.09
2022-11-17T00:19:17.218Z,6.03
2022-11-17T00:19:27.445Z,6.04
2022-11-17T00:19:37.225Z,6.09
2022-11-17T00:19:47.363Z,6.06
2022-11-17T00:19:57.264Z,6.07
2022-11-17T00:20:07.298Z,6.04
2022-11-17T00:20:17.227Z,6.04
2022-11-17T00:20:27.447Z,6.07
2022-11-17T00:20:37.259Z,6.03
2022-11-17T00:20:47.243Z,6.03
2022-11-17T00:20:57.422Z,6.03
2022-11-17T00:21:07.265Z,6.04
2022-11-17T00:21:17.197Z,6.03
2022-11-17T00:21:27.399Z,6.03
2022-11-17T00:21:37.285Z,6.03
2022-11-17T00:21:47.283Z,6.04
2022-11-17T00:21:57.263Z,6.03
2022-11-17T00:22:07.151Z,6.04
2022-11-17T00:22:17.288Z,6.09
2022-11-17T00:22:27.347Z,6.01
2022-11-17T00:22:37.373Z,6.04
2022-11-17T00:22:47.210Z,6.03
2022-11-17T00:22:57.419Z,6.04
2022-11-17T00:23:07.362Z,6.04
2022-11-17T00:23:17.224Z,6.03
2022-11-17T00:23:27.397Z,6.06
2022-11-17T00:23:37.375Z,6.03
2022-11-17T00:23:47.798Z,6.03
2022-11-17T00:23:57.386Z,6.06
2022-11-17T00:24:07.386Z,6.01
2022-11-17T00:24:17.455Z,5.96
2022-11-17T00:24:27.381Z,6.01
2022-11-17T00:24:37.234Z,5.98
2022-11-17T00:24:47.213Z,6.04
2022-11-17T00:24:57.326Z,6.03
2022-11-17T00:25:07.405Z,5.98
2022-11-17T00:25:17.438Z,6.01
2022-11-17T00:25:27.322Z,6.03
2022-11-17T00:25:37.425Z,6.03
2022-11-17T00:25:47.439Z,6.00
2022-11-17T00:25:57.406Z,5.98
2022-11-17T00:26:07.209Z,6.01
2022-11-17T00:26:17.277Z,6.01
2022-11-17T00:26:27.156Z,6.01
2022-11-17T00:26:37.350Z,5.96
2022-11-17T00:26:47.333Z,6.00
2022-11-17T00:26:57.237Z,6.00
2022-11-17T00:27:07.417Z,5.98
2022-11-17T00:27:17.235Z,5.98
2022-11-17T00:27:27.366Z,6.01
2022-11-17T00:27:37.361Z,6.00
2022-11-17T00:27:47.341Z,6.04
2022-11-17T00:27:57.180Z,6.03
2022-11-17T00:28:07.237Z,5.95
2022-11-17T00:28:17.327Z,5.98
2022-11-17T00:28:27.205Z,6.00
2022-11-17T00:28:37.228Z,5.96
2022-11-17T00:28:47.238Z,5.98
2022-11-17T00:28:57.221Z,5.98
2022-11-17T00:29:07.455Z,5.96
2022-11-17T00:29:17.388Z,6.01
2022-11-17T00:29:27.272Z,6.01
2022-11-17T00:29:39.346Z,6.03
2022-11-17T00:29:47.211Z,6.00
2022-11-17T00:29:57.305Z,5.98
2022-11-17T00:30:07.456Z,5.98
2022-11-17T00:30:17.347Z,6.00
2022-11-17T00:30:27.382Z,6.01
2022-11-17T00:30:37.350Z,6.00
2022-11-17T00:30:47.378Z,6.01
2022-11-17T00:30:57.284Z,6.03
2022-11-17T00:31:07.157Z,6.03
2022-11-17T00:31:17.212Z,5.96
2022-11-17T00:31:27.161Z,6.01
2022-11-17T00:31:37.291Z,6.00
2022-11-17T00:31:47.366Z,5.98
2022-11-17T00:31:57.353Z,5.98
2022-11-17T00:32:07.449Z,6.00
2022-11-17T00:32:17.222Z,6.00
2022-11-17T00:32:27.335Z,6.01
2022-11-17T00:32:37.236Z,5.96
2022-11-17T00:32:47.354Z,5.98
2022-11-17T00:32:57.335Z,5.96
2022-11-17T00:33:07.472Z,5.98
2022-11-17T00:33:17.361Z,5.98
2022-11-17T00:33:27.262Z,5.96
2022-11-17T00:33:37.518Z,5.98
2022-11-17T00:33:47.424Z,6.01
2022-11-17T00:33:57.286Z,6.00
2022-11-17T00:34:07.450Z,5.95
2022-11-17T00:34:17.375Z,5.96
2022-11-17T00:34:27.164Z,5.98
2022-11-17T00:34:37.431Z,5.92
2022-11-17T00:34:47.399Z,6.00
2022-11-17T00:34:57.347Z,5.93
2022-11-17T00:35:07.166Z,5.96
2022-11-17T00:35:17.243Z,5.98
2022-11-17T00:35:27.174Z,5.98
2022-11-17T00:35:37.310Z,6.00
2022-11-17T00:35:47.166Z,5.93
2022-11-17T00:35:57.238Z,5.96
2022-11-17T00:36:07.213Z,5.98
2022-11-17T00:36:17.394Z,5.98
2022-11-17T00:36:27.331Z,5.98
2022-11-17T00:36:37.184Z,6.00
2022-11-17T00:36:47.473Z,5.98
2022-11-17T00:36:57.269Z,6.00
2022-11-17T00:37:07.239Z,6.00
2022-11-17T00:37:17.389Z,6.00
2022-11-17T00:37:27.462Z,6.03
2022-11-17T00:37:37.156Z,5.96
2022-11-17T00:37:47.277Z,6.00
2022-11-17T00:37:57.267Z,6.00
2022-11-17T00:38:07.193Z,6.00
2022-11-17T00:38:17.397Z,6.00
2022-11-17T00:38:27.314Z,5.96
2022-11-17T00:38:37.344Z,6.01
2022-11-17T00:38:47.333Z,6.04
2022-11-17T00:38:57.366Z,5.98
2022-11-17T00:39:07.331Z,6.01
2022-11-17T00:39:17.402Z,6.01
2022-11-17T00:39:27.294Z,6.01
2022-11-17T00:39:37.371Z,6.00
2022-11-17T00:39:47.383Z,6.00
2022-11-17T00:40:00.701Z,5.96
2022-11-17T00:40:07.458Z,5.98
2022-11-17T00:40:17.216Z,6.07
2022-11-17T00:40:27.410Z,6.01
2022-11-17T00:40:37.414Z,6.04
2022-11-17T00:40:47.450Z,6.00
2022-11-17T00:40:57.380Z,6.06
2022-11-17T00:41:07.379Z,6.00
2022-11-17T00:41:17.303Z,6.03
2022-11-17T00:41:27.463Z,5.98
2022-11-17T00:41:37.354Z,6.03
2022-11-17T00:41:47.408Z,6.03
2022-11-17T00:41:57.405Z,5.98
2022-11-17T00:42:07.264Z,6.01
2022-11-17T00:42:17.208Z,6.03
2022-11-17T00:42:27.352Z,6.01
2022-11-17T00:42:37.301Z,6.01
2022-11-17T00:42:47.190Z,6.03
2022-11-17T00:42:57.429Z,6.03
2022-11-17T00:43:07.179Z,5.98
2022-11-17T00:43:17.437Z,6.07
2022-11-17T00:43:27.395Z,6.03
2022-11-17T00:43:37.573Z,6.07
2022-11-17T00:43:47.229Z,6.00
2022-11-17T00:43:57.288Z,6.06
2022-11-17T00:44:07.550Z,6.03
2022-11-17T00:44:17.326Z,6.03
2022-11-17T00:44:27.346Z,6.03
2022-11-17T00:44:37.249Z,6.04
2022-11-17T00:44:47.321Z,6.04
2022-11-17T00:44:57.251Z,6.04
2022-11-17T00:45:07.387Z,6.03
2022-11-17T00:45:17.429Z,6.06
2022-11-17T00:45:27.204Z,6.04
2022-11-17T00:45:37.456Z,6.01
2022-11-17T00:45:47.369Z,6.04
2022-11-17T00:45:57.216Z,6.04
2022-11-17T00:46:07.330Z,6.07
2022-11-17T00:46:17.298Z,6.07
2022-11-17T00:46:27.446Z,6.06
2022-11-17T00:46:37.419Z,6.04
2022-11-17T00:46:47.256Z,6.04
2022-11-17T00:46:57.312Z,6.04
2022-11-17T00:47:07.226Z,6.01
2022-11-17T00:47:17.229Z,6.04
2022-11-17T00:47:27.408Z,6.04
2022-11-17T00:47:37.184Z,6.04
2022-11-17T00:47:47.335Z,6.06
2022-11-17T00:47:57.408Z,6.06
2022-11-17T00:48:07.176Z,6.04
2022-11-17T00:48:17.491Z,6.06
2022-11-17T00:48:27.447Z,6.10
2022-11-17T00:48:37.159Z,6.06
2022-11-17T00:48:47.193Z,6.09
2022-11-17T00:48:57.235Z,6.03
2022-11-17T00:49:07.266Z,6.07
2022-11-17T00:49:17.308Z,6.07
2022-11-17T00:49:27.173Z,6.06
2022-11-17T00:49:37.368Z,6.04
2022-11-17T00:49:47.177Z,6.09
2022-11-17T00:49:57.243Z,6.09
2022-11-17T00:50:07.336Z,6.07
2022-11-17T00:50:17.297Z,6.06
2022-11-17T00:50:27.474Z,6.06
2022-11-17T00:50:37.459Z,6.07
2022-11-17T00:50:47.358Z,6.06
2022-11-17T00:50:57.187Z,6.07
2022-11-17T00:51:07.353Z,6.03
2022-11-17T00:51:17.184Z,6.04
2022-11-17T00:51:27.351Z,6.06
2022-11-17T00:51:37.424Z,6.07
2022-11-17T00:51:47.250Z,6.09
2022-11-17T00:51:57.409Z,6.11
2022-11-17T00:52:07.193Z,6.07
2022-11-17T00:52:17.421Z,6.09
2022-11-17T00:52:27.259Z,6.06
2022-11-17T00:52:37.290Z,6.07
2022-11-17T00:52:47.398Z,6.07
2022-11-17T00:52:57.278Z,6.09
2022-11-17T00:53:07.404Z,6.07
2022-11-17T00:53:17.171Z,6.07
2022-11-17T00:53:27.217Z,6.09
2022-11-17T00:53:37.453Z,6.11
2022-11-17T00:53:47.461Z,6.11
2022-11-17T00:53:57.395Z,6.10
2022-11-17T00:54:07.261Z,6.09
2022-11-17T00:54:17.442Z,6.13
2022-11-17T00:54:27.192Z,6.06
2022-11-17T00:54:37.353Z,6.07
2022-11-17T00:54:47.391Z,6.07
2022-11-17T00:54:57.335Z,6.10
2022-11-17T00:55:07.420Z,6.06
2022-11-17T00:55:17.435Z,6.06
2022-11-17T00:55:27.504Z,6.10
2022-11-17T00:55:37.312Z,6.09
2022-11-17T00:55:47.303Z,6.06
2022-11-17T00:55:57.481Z,6.10
2022-11-17T00:56:07.279Z,6.04
2022-11-17T00:56:17.388Z,6.06
2022-11-17T00:56:27.255Z,6.10
2022-11-17T00:56:37.364Z,6.09
2022-11-17T00:56:47.267Z,6.10
2022-11-17T00:56:57.297Z,6.10
2022-11-17T00:57:07.251Z,6.09
2022-11-17T00:57:17.261Z,6.09
2022-11-17T00:57:27.214Z,6.10
2022-11-17T00:57:37.375Z,6.09
2022-11-17T00:57:47.271Z,6.07
2022-11-17T00:57:57.456Z,6.09
2022-11-17T00:58:07.282Z,6.11
2022-11-17T00:58:17.534Z,6.07
2022-11-17T00:58:27.349Z,6.09
2022-11-17T00:58:37.191Z,6.09
2022-11-17T00:58:47.395Z,6.13
2022-11-17T00:58:57.388Z,6.06
2022-11-17T00:59:07.296Z,6.09
2022-11-17T00:59:17.412Z,6.09
2022-11-17T00:59:27.250Z,6.10
2022-11-17T00:59:37.332Z,6.10
2022-11-17T00:59:47.177Z,6.10
2022-11-17T00:59:57.214Z,6.11
2022-11-17T01:00:07.443Z,6.07
2022-11-17T01:00:17.396Z,6.07
2022-11-17T01:00:27.250Z,6.10
2022-11-17T01:00:37.356Z,6.16
2022-11-17T01:00:47.293Z,6.09
2022-11-17T01:00:57.228Z,6.09
2022-11-17T01:01:07.491Z,6.13
2022-11-17T01:01:17.331Z,6.13
2022-11-17T01:01:27.405Z,6.09
2022-11-17T01:01:37.462Z,6.06
2022-11-17T01:01:47.550Z,6.09
2022-11-17T01:01:57.445Z,6.10
2022-11-17T01:02:07.315Z,6.13
2022-11-17T01:02:17.358Z,6.09
2022-11-17T01:02:27.481Z,6.11
2022-11-17T01:02:37.447Z,6.11
2022-11-17T01:02:47.264Z,6.09
2022-11-17T01:02:57.215Z,6.04
2022-11-17T01:03:07.309Z,6.13
2022-11-17T01:03:17.461Z,6.10
2022-11-17T01:03:27.313Z,6.09
2022-11-17T01:03:37.633Z,6.10
2022-11-17T01:03:47.267Z,6.09
2022-11-17T01:03:57.153Z,6.07
2022-11-17T01:04:07.216Z,6.07
2022-11-17T01:04:17.407Z,6.11
2022-11-17T01:04:27.377Z,6.09
2022-11-17T01:04:37.360Z,6.11
2022-11-17T01:04:47.370Z,6.13
2022-11-17T01:04:57.195Z,6.09
2022-11-17T01:05:07.424Z,6.11
2022-11-17T01:05:17.339Z,6.09
2022-11-17T01:05:32.703Z,6.13
2022-11-17T01:05:37.198Z,6.11
2022-11-17T01:05:47.351Z,6.10
2022-11-17T01:05:57.191Z,6.11
2022-11-17T01:06:07.309Z,6.10
2022-11-17T01:06:17.269Z,6.09
2022-11-17T01:06:27.419Z,6.11
2022-11-17T01:06:37.159Z,6.10
2022-11-17T01:06:47.442Z,6.10
2022-11-17T01:06:57.480Z,6.14
2022-11-17T01:07:07.297Z,6.09
2022-11-17T01:07:17.527Z,6.06
2022-11-17T01:07:27.626Z,6.11
2022-11-17T01:07:37.402Z,6.09
2022-11-17T01:07:47.214Z,6.09
2022-11-17T01:07:57.209Z,6.11
2022-11-17T01:08:07.217Z,6.14
2022-11-17T01:08:17.221Z,6.10
2022-11-17T01:08:27.476Z,6.13
2022-11-17T01:08:37.338Z,6.16
2022-11-17T01:08:47.374Z,6.13
2022-11-17T01:08:57.275Z,6.14
2022-11-17T01:09:07.208Z,6.11
2022-11-17T01:09:17.155Z,6.16
2022-11-17T01:09:27.350Z,6.16
2022-11-17T01:09:37.288Z,6.16
2022-11-17T01:09:47.188Z,6.13
2022-11-17T01:09:57.223Z,6.13
2022-11-17T01:10:07.262Z,6.09
2022-11-17T01:10:17.196Z,6.11
2022-11-17T01:10:27.227Z,6.14
2022-11-17T01:10:37.284Z,6.14
2022-11-17T01:10:47.171Z,6.19
2022-11-17T01:10:57.298Z,6.13
2022-11-17T01:11:07.483Z,6.18
2022-11-17T01:11:17.242Z,6.18
2022-11-17T01:11:27.433Z,6.14
2022-11-17T01:11:37.159Z,6.13
2022-11-17T01:11:47.372Z,6.18
2022-11-17T01:11:57.240Z,6.16
2022-11-17T01:12:07.441Z,6.13
2022-11-17T01:12:17.342Z,6.11
2022-11-17T01:12:27.266Z,6.14
2022-11-17T01:12:37.317Z,6.16
2022-11-17T01:12:47.325Z,6.16
2022-11-17T01:12:57.441Z,6.14
2022-11-17T01:13:07.490Z,6.18
2022-11-17T01:13:17.419Z,6.18
2022-11-17T01:13:27.162Z,6.21
2022-11-17T01:13:37.550Z,6.18
2022-11-17T01:13:47.367Z,6.14
2022-11-17T01:13:57.223Z,6.21
2022-11-17T01:14:07.368Z,6.18
2022-11-17T01:14:17.382Z,6.25
2022-11-17T01:14:27.262Z,6.19
2022-11-17T01:14:37.288Z,6.19
2022-11-17T01:14:47.497Z,6.21
2022-11-17T01:14:57.338Z,6.19
2022-11-17T01:15:07.239Z,6.19
2022-11-17T01:15:17.483Z,6.19
2022-11-17T01:15:27.481Z,6.21
2022-11-17T01:15:37.178Z,6.19
2022-11-17T01:15:47.190Z,6.26
2022-11-17T01:15:57.169Z,6.19
2022-11-17T01:16:07.396Z,6.19
2022-11-17T01:16:17.165Z,6.19
2022-11-17T01:16:27.209Z,6.19
2022-11-17T01:16:37.448Z,6.21
2022-11-17T01:16:47.284Z,6.21
2022-11-17T01:16:57.483Z,6.22
2022-11-17T01:17:07.408Z,6.21
2022-11-17T01:17:17.515Z,6.19
2022-11-17T01:17:27.223Z,6.21
2022-11-17T01:17:37.197Z,6.26
2022-11-17T01:17:47.483Z,6.22
2022-11-17T01:17:57.170Z,6.18
2022-11-17T01:18:07.248Z,6.26
2022-11-17T01:18:17.411Z,6.26
2022-11-17T01:18:27.384Z,6.19
2022-11-17T01:18:37.185Z,6.25
2022-11-17T01:18:47.245Z,6.22
2022-11-17T01:18:57.205Z,6.25
2022-11-17T01:19:07.277Z,6.19
2022-11-17T01:19:17.307Z,6.22
2022-11-17T01:19:27.304Z,6.22
2022-11-17T01:19:37.252Z,6.25
2022-11-17T01:19:47.178Z,6.25
2022-11-17T01:19:57.437Z,6.21
2022-11-17T01:20:07.192Z,6.21
2022-11-17T01:20:17.280Z,6.19
2022-11-17T01:20:27.204Z,6.25
2022-11-17T01:20:37.166Z,6.26
2022-11-17T01:20:47.171Z,6.22
2022-11-17T01:20:57.296Z,6.21
2022-11-17T01:21:07.367Z,6.21
2022-11-17T01:21:17.241Z,6.22
2022-11-17T01:21:27.272Z,6.28
2022-11-17T01:21:37.266Z,6.22
2022-11-17T01:21:47.314Z,6.22
2022-11-17T01:21:57.303Z,6.22
2022-11-17T01:22:07.401Z,6.21
2022-11-17T01:22:17.177Z,6.21
2022-11-17T01:22:27.240Z,6.22
2022-11-17T01:22:37.309Z,6.19
2022-11-17T01:22:47.443Z,6.25
2022-11-17T01:22:57.239Z,6.22
2022-11-17T01:23:07.322Z,6.26
2022-11-17T01:23:17.172Z,6.21
2022-11-17T01:23:27.199Z,6.22
2022-11-17T01:23:37.400Z,6.16
2022-11-17T01:23:47.167Z,6.21
2022-11-17T01:23:57.175Z,6.21
2022-11-17T01:24:07.244Z,6.21
2022-11-17T01:24:17.432Z,6.21
2022-11-17T01:24:27.153Z,6.21
2022-11-17T01:24:37.217Z,6.21
2022-11-17T01:24:47.395Z,6.21
2022-11-17T01:24:57.299Z,6.19
2022-11-17T01:25:07.254Z,6.26
2022-11-17T01:25:17.264Z,6.26
2022-11-17T01:25:27.328Z,6.21
2022-11-17T01:25:37.166Z,6.22
2022-11-17T01:25:47.275Z,6.22
2022-11-17T01:25:57.238Z,6.28
2022-11-17T01:26:07.369Z,6.19
2022-11-17T01:26:17.231Z,6.21
2022-11-17T01:26:27.388Z,6.19
2022-11-17T01:26:37.410Z,6.22
2022-11-17T01:26:47.224Z,6.21
2022-11-17T01:26:57.287Z,6.16
2022-11-17T01:27:07.244Z,6.21
2022-11-17T01:27:17.411Z,6.22
2022-11-17T01:27:27.354Z,6.21
2022-11-17T01:27:37.376Z,6.19
2022-11-17T01:27:47.287Z,6.21
2022-11-17T01:27:57.429Z,6.19
2022-11-17T01:28:07.381Z,6.19
2022-11-17T01:28:17.372Z,6.21
2022-11-17T01:28:27.364Z,6.13
2022-11-17T01:28:37.242Z,6.25
2022-11-17T01:28:47.373Z,6.18
2022-11-17T01:28:57.430Z,6.21
2022-11-17T01:29:07.343Z,6.18
2022-11-17T01:29:17.491Z,6.19
2022-11-17T01:29:27.403Z,6.22
2022-11-17T01:29:37.196Z,6.19
2022-11-17T01:29:47.307Z,6.21
2022-11-17T01:29:57.202Z,6.22
2022-11-17T01:30:07.221Z,6.21
2022-11-17T01:30:17.333Z,6.21
2022-11-17T01:30:27.363Z,6.19
2022-11-17T01:30:37.178Z,6.21
2022-11-17T01:30:47.396Z,6.22
2022-11-17T01:30:57.466Z,6.18
2022-11-17T01:31:07.283Z,6.18
2022-11-17T01:31:17.213Z,6.21
2022-11-17T01:31:27.325Z,6.22
2022-11-17T01:31:37.312Z,6.19
2022-11-17T01:31:47.271Z,6.19
2022-11-17T01:31:57.238Z,6.21
2022-11-17T01:32:07.244Z,6.18
2022-11-17T01:32:17.486Z,6.18
2022-11-17T01:32:27.327Z,6.21
2022-11-17T01:32:37.153Z,6.21
2022-11-17T01:32:47.232Z,6.22
2022-11-17T01:32:57.194Z,6.21
2022-11-17T01:33:07.193Z,6.26
2022-11-17T01:33:17.206Z,6.26
2022-11-17T01:33:27.201Z,6.19
2022-11-17T01:33:37.679Z,6.21
2022-11-17T01:33:47.400Z,6.16
2022-11-17T01:33:57.399Z,6.19
2022-11-17T01:34:07.472Z,6.18
2022-11-17T01:34:17.405Z,6.13
2022-11-17T01:34:27.352Z,6.25
2022-11-17T01:34:37.329Z,6.13
2022-11-17T01:34:47.324Z,6.22
2022-11-17T01:34:57.367Z,6.21
2022-11-17T01:35:07.185Z,6.14
2022-11-17T01:35:17.286Z,6.19
2022-11-17T01:35:27.225Z,6.16
2022-11-17T01:35:37.159Z,6.18
2022-11-17T01:35:47.409Z,6.18
2022-11-17T01:35:57.323Z,6.18
2022-11-17T01:36:07.439Z,6.18
2022-11-17T01:36:17.368Z,6.16
2022-11-17T01:36:27.183Z,6.14
2022-11-17T01:36:37.233Z,6.14
2022-11-17T01:36:47.252Z,6.13
2022-11-17T01:36:57.301Z,6.11
2022-11-17T01:37:07.203Z,6.16
2022-11-17T01:37:17.437Z,6.14
2022-11-17T01:37:27.375Z,6.19
2022-11-17T01:37:37.183Z,6.16
2022-11-17T01:37:47.292Z,6.11
2022-11-17T01:37:57.405Z,6.16
2022-11-17T01:38:07.313Z,6.10
2022-11-17T01:38:17.399Z,6.13
2022-11-17T01:38:27.385Z,6.09
2022-11-17T01:38:37.411Z,6.13
2022-11-17T01:38:47.247Z,6.13
2022-11-17T01:38:57.321Z,6.16
2022-11-17T01:39:07.229Z,6.14
2022-11-17T01:39:17.432Z,6.16
2022-11-17T01:39:27.442Z,6.11
2022-11-17T01:39:37.214Z,6.13
2022-11-17T01:39:47.492Z,6.14
2022-11-17T01:39:57.294Z,6.14
2022-11-17T01:40:07.416Z,6.13
2022-11-17T01:40:17.406Z,6.11
2022-11-17T01:40:27.440Z,6.16
2022-11-17T01:40:37.367Z,6.11
2022-11-17T01:40:47.223Z,6.14
2022-11-17T01:40:57.215Z,6.14
2022-11-17T01:41:07.405Z,6.14
2022-11-17T01:41:17.181Z,6.16
2022-11-17T01:41:27.394Z,6.18
2022-11-17T01:41:37.442Z,6.14
2022-11-17T01:41:47.293Z,6.13
2022-11-17T01:41:57.474Z,6.13
2022-11-17T01:42:07.384Z,6.14
2022-11-17T01:42:17.245Z,6.13
2022-11-17T01:42:27.270Z,6.14
2022-11-17T01:42:37.180Z,6.14
2022-11-17T01:42:47.464Z,6.21
2022-11-17T01:42:57.286Z,6.13
2022-11-17T01:43:07.189Z,6.16
2022-11-17T01:43:17.327Z,6.14
2022-11-17T01:43:27.235Z,6.16
2022-11-17T01:43:37.446Z,6.16
2022-11-17T01:43:47.273Z,6.10
2022-11-17T01:43:57.457Z,6.18
2022-11-17T01:44:07.419Z,6.18
2022-11-17T01:44:17.179Z,6.18
2022-11-17T01:44:27.152Z,6.16
2022-11-17T01:44:37.314Z,6.16
2022-11-17T01:44:47.288Z,6.14
2022-11-17T01:44:57.254Z,6.16
2022-11-17T01:45:07.437Z,6.13
2022-11-17T01:45:17.366Z,6.14
2022-11-17T01:45:27.273Z,6.16
2022-11-17T01:45:37.415Z,6.13
2022-11-17T01:45:47.270Z,6.13
2022-11-17T01:45:57.396Z,6.13
2022-11-17T01:46:07.216Z,6.11
2022-11-17T01:46:17.178Z,6.13
2022-11-17T01:46:27.181Z,6.13
2022-11-17T01:46:37.225Z,6.13
2022-11-17T01:46:47.161Z,6.19
2022-11-17T01:47:00.914Z,6.11
2022-11-17T01:47:07.412Z,6.10
2022-11-17T01:47:17.378Z,6.14
2022-11-17T01:47:27.301Z,6.21
2022-11-17T01:47:37.198Z,6.10
2022-11-17T01:47:47.332Z,6.13
2022-11-17T01:47:57.296Z,6.14
2022-11-17T01:48:07.456Z,6.13
2022-11-17T01:48:17.312Z,6.07
2022-11-17T01:48:27.304Z,6.11
2022-11-17T01:48:37.414Z,6.16
2022-11-17T01:48:47.358Z,6.13
2022-11-17T01:48:57.384Z,6.14
2022-11-17T01:49:07.292Z,6.16
2022-11-17T01:49:17.357Z,6.14
2022-11-17T01:49:27.272Z,6.16
2022-11-17T01:49:37.421Z,6.11
2022-11-17T01:49:47.442Z,6.13
2022-11-17T01:49:57.408Z,6.09
2022-11-17T01:50:07.296Z,6.09
2022-11-17T01:50:17.227Z,6.14
2022-11-17T01:50:27.217Z,6.13
2022-11-17T01:50:37.253Z,6.10
2022-11-17T01:50:47.241Z,6.18
2022-11-17T01:50:57.264Z,6.14
2022-11-17T01:51:07.238Z,6.14
2022-11-17T01:51:17.338Z,6.14
2022-11-17T01:51:27.405Z,6.13
2022-11-17T01:51:37.348Z,6.13
2022-11-17T01:51:47.256Z,6.14
2022-11-17T01:51:57.397Z,6.18
2022-11-17T01:52:07.279Z,6.19
2022-11-17T01:52:17.317Z,6.14
2022-11-17T01:52:27.401Z,6.14
2022-11-17T01:52:37.407Z,6.11
2022-11-17T01:52:47.437Z,6.13
2022-11-17T01:52:57.199Z,6.14
2022-11-17T01:53:07.319Z,6.13
2022-11-17T01:53:17.443Z,6.18
2022-11-17T01:53:27.218Z,6.13
2022-11-17T01:53:37.555Z,6.19
2022-11-17T01:53:47.203Z,6.13
2022-11-17T01:53:57.327Z,6.16
2022-11-17T01:54:07.184Z,6.16
2022-11-17T01:54:17.363Z,6.14
2022-11-17T01:54:27.417Z,6.16
2022-11-17T01:54:37.434Z,6.14
2022-11-17T01:54:47.427Z,6.19
2022-11-17T01:54:57.278Z,6.18
2022-11-17T01:55:07.452Z,6.18
2022-11-17T01:55:17.196Z,6.16
2022-11-17T01:55:27.161Z,6.14
2022-11-17T01:55:37.398Z,6.21
2022-11-17T01:55:47.335Z,6.18
2022-11-17T01:55:57.212Z,6.14
2022-11-17T01:56:07.197Z,6.16
2022-11-17T01:56:17.405Z,6.16
2022-11-17T01:56:27.294Z,6.14
2022-11-17T01:56:37.218Z,6.13
2022-11-17T01:56:47.432Z,6.19
2022-11-17T01:56:57.224Z,6.13
2022-11-17T01:57:07.261Z,6.14
2022-11-17T01:57:17.148Z,6.21
2022-11-17T01:57:27.328Z,6.10
2022-11-17T01:57:37.336Z,6.16
2022-11-17T01:57:47.222Z,6.13
2022-11-17T01:57:57.237Z,6.16
2022-11-17T01:58:07.410Z,6.19
2022-11-17T01:58:17.323Z,6.19
2022-11-17T01:58:27.310Z,6.16
2022-11-17T01:58:37.175Z,6.11
2022-11-17T01:58:47.343Z,6.19
2022-11-17T01:58:57.412Z,6.13
2022-11-17T01:59:07.437Z,6.16
2022-11-17T01:59:17.305Z,6.16
2022-11-17T01:59:27.175Z,6.14
2022-11-17T01:59:37.215Z,6.13
2022-11-17T01:59:47.312Z,6.18
2022-11-17T01:59:57.273Z,6.14
2022-11-17T02:00:07.455Z,6.13
2022-11-17T02:00:17.156Z,6.18
2022-11-17T02:00:27.182Z,6.19
2022-11-17T02:00:37.341Z,6.13
2022-11-17T02:00:47.202Z,6.13
2022-11-17T02:00:57.171Z,6.18
2022-11-17T02:01:07.433Z,6.18
2022-11-17T02:01:17.305Z,6.18
2022-11-17T02:01:27.275Z,6.16
2022-11-17T02:01:37.408Z,6.16
2022-11-17T02:01:47.301Z,6.14
2022-11-17T02:01:57.304Z,6.18
2022-11-17T02:02:07.319Z,6.18
2022-11-17T02:02:17.469Z,6.18
2022-11-17T02:02:27.258Z,6.14
2022-11-17T02:02:37.347Z,6.19
2022-11-17T02:02:47.290Z,6.19
2022-11-17T02:02:57.208Z,6.18
2022-11-17T02:03:07.452Z,6.19
2022-11-17T02:03:17.437Z,6.19
2022-11-17T02:03:27.453Z,6.19
2022-11-17T02:03:37.725Z,6.16
2022-11-17T02:03:47.275Z,6.10
2022-11-17T02:03:57.308Z,6.19
2022-11-17T02:04:07.387Z,6.21
2022-11-17T02:04:17.382Z,6.18
2022-11-17T02:04:27.162Z,6.14
2022-11-17T02:04:37.321Z,6.25
2022-11-17T02:04:47.374Z,6.18
2022-11-17T02:04:57.234Z,6.14
2022-11-17T02:05:07.382Z,6.18
2022-11-17T02:05:17.259Z,6.18
2022-11-17T02:05:27.397Z,6.21
2022-11-17T02:05:37.227Z,6.18
2022-11-17T02:05:47.241Z,6.18
2022-11-17T02:05:57.187Z,6.18
2022-11-17T02:06:07.286Z,6.18
2022-11-17T02:06:17.336Z,6.19
2022-11-17T02:06:27.334Z,6.21
2022-11-17T02:06:37.258Z,6.18
2022-11-17T02:06:47.339Z,6.19
2022-11-17T02:06:57.402Z,6.16
2022-11-17T02:07:07.500Z,6.19
2022-11-17T02:07:17.373Z,6.21
2022-11-17T02:07:27.307Z,6.16
2022-11-17T02:07:37.234Z,6.19
2022-11-17T02:07:47.175Z,6.19
2022-11-17T02:07:57.277Z,6.19
2022-11-17T02:08:07.405Z,6.19
2022-11-17T02:08:17.399Z,6.22
2022-11-17T02:08:27.446Z,6.21
2022-11-17T02:08:37.316Z,6.22
2022-11-17T02:08:47.451Z,6.19
2022-11-17T02:08:57.410Z,6.22
2022-11-17T02:09:07.405Z,6.25
2022-11-17T02:09:17.219Z,6.22
2022-11-17T02:09:27.289Z,6.21
2022-11-17T02:09:37.220Z,6.22
2022-11-17T02:09:47.358Z,6.21
2022-11-17T02:09:57.216Z,6.25
2022-11-17T02:10:07.385Z,6.22
2022-11-17T02:10:17.321Z,6.22
2022-11-17T02:10:27.182Z,6.22
2022-11-17T02:10:37.181Z,6.21
2022-11-17T02:10:51.602Z,6.22
2022-11-17T02:10:57.460Z,6.22
2022-11-17T02:11:07.164Z,6.25
2022-11-17T02:11:17.429Z,6.22
2022-11-17T02:11:27.468Z,6.25
2022-11-17T02:11:37.407Z,6.26
2022-11-17T02:11:47.220Z,6.26
2022-11-17T02:11:57.252Z,6.25
2022-11-17T02:12:07.292Z,6.25
2022-11-17T02:12:17.292Z,6.18
2022-11-17T02:12:27.198Z,6.28
2022-11-17T02:12:37.196Z,6.25
2022-11-17T02:12:47.413Z,6.26
2022-11-17T02:12:57.390Z,6.22
2022-11-17T02:13:07.405Z,6.25